createdAt,value
2023-01-29T00:02:34.762Z,4.85
2023-01-29T00:05:36.767Z,4.61
2023-01-29T00:08:38.694Z,4.57
2023-01-29T00:11:40.626Z,4.98
2023-01-29T00:14:42.682Z,4.59
2023-01-29T00:17:44.927Z,4.27
2023-01-29T00:20:46.921Z,4.28
2023-01-29T00:23:48.922Z,4.28
2023-01-29T00:26:50.819Z,4.33
2023-01-29T00:30:09.701Z,4.13
2023-01-29T00:33:13.477Z,3.43
2023-01-29T00:36:16.423Z,3.59
2023-01-29T00:39:31.394Z,3.41
2023-01-29T00:42:57.092Z,3.77
2023-01-29T00:45:59.087Z,2.56
2023-01-29T00:49:01.018Z,3.37
2023-01-29T00:52:21.361Z,2.66
2023-01-29T00:55:23.289Z,3.03
2023-01-29T00:58:34.130Z,3.25
2023-01-29T01:01:54.924Z,3.22
2023-01-29T01:04:56.885Z,3.13
2023-01-29T01:07:58.815Z,3.26
2023-01-29T01:11:07.134Z,3.50
2023-01-29T01:14:09.503Z,3.56
2023-01-29T01:17:11.339Z,2.74
2023-01-29T01:20:13.279Z,3.23
2023-01-29T01:23:15.261Z,3.37
2023-01-29T01:26:17.193Z,3.33
2023-01-29T01:29:19.125Z,2.93
2023-01-29T01:32:21.071Z,2.99
2023-01-29T01:35:22.981Z,2.20
2023-01-29T01:38:25.111Z,2.54
2023-01-29T01:41:26.997Z,2.96
2023-01-29T01:44:47.715Z,3.24
2023-01-29T01:47:51.864Z,2.22
2023-01-29T01:51:03.333Z,3.49
2023-01-29T01:54:12.710Z,2.93
2023-01-29T01:57:18.548Z,2.84
2023-01-29T02:00:20.737Z,2.13
2023-01-29T02:03:41.374Z,2.97
2023-01-29T02:07:02.220Z,3.01
2023-01-29T02:10:11.601Z,2.89
2023-01-29T02:13:16.360Z,2.28
2023-01-29T02:16:18.182Z,2.14
2023-01-29T02:19:23.566Z,2.96
2023-01-29T02:22:44.363Z,2.63
2023-01-29T02:26:05.379Z,3.43
2023-01-29T02:29:22.804Z,2.81
2023-01-29T02:32:31.694Z,2.20
2023-01-29T02:35:52.566Z,2.60
2023-01-29T02:38:55.248Z,1.95
2023-01-29T02:42:02.134Z,2.60
2023-01-29T02:45:03.955Z,2.37
2023-01-29T02:48:06.047Z,2.64
2023-01-29T02:51:11.228Z,1.78
2023-01-29T02:54:22.443Z,2.04
2023-01-29T02:57:25.675Z,1.99
2023-01-29T03:00:28.489Z,2.19
2023-01-29T03:03:39.410Z,2.47
2023-01-29T03:07:04.746Z,2.30
2023-01-29T03:10:12.207Z,3.38
2023-01-29T03:13:22.192Z,3.14
2023-01-29T03:16:34.585Z,2.38
2023-01-29T03:19:40.379Z,2.18
2023-01-29T03:22:42.472Z,2.38
2023-01-29T03:26:03.021Z,1.68
2023-01-29T03:29:23.576Z,1.52
2023-01-29T03:32:26.675Z,1.82
2023-01-29T03:35:48.462Z,2.58
2023-01-29T03:38:50.573Z,2.57
2023-01-29T03:42:12.686Z,2.73
2023-01-29T03:45:23.677Z,2.56
2023-01-29T03:48:29.407Z,2.76
2023-01-29T03:51:34.578Z,2.01
2023-01-29T03:54:42.297Z,2.67
2023-01-29T03:58:07.667Z,2.89
2023-01-29T04:01:09.550Z,2.18
2023-01-29T04:04:15.881Z,2.89
2023-01-29T04:07:18.688Z,2.84
2023-01-29T04:10:21.990Z,3.09
2023-01-29T04:13:23.827Z,3.05
2023-01-29T04:16:29.685Z,2.13
2023-01-29T04:19:31.663Z,2.82
2023-01-29T04:22:34.780Z,2.70
2023-01-29T04:25:41.286Z,2.89
2023-01-29T04:28:43.073Z,3.75
2023-01-29T04:31:47.731Z,3.00
2023-01-29T04:34:55.884Z,3.23
2023-01-29T04:37:57.736Z,3.28
2023-01-29T04:41:04.249Z,3.55
2023-01-29T04:44:06.284Z,3.70
2023-01-29T04:47:23.670Z,3.53
2023-01-29T04:50:29.363Z,3.89
2023-01-29T04:53:40.372Z,4.28
2023-01-29T04:56:45.144Z,3.77
2023-01-29T04:59:47.883Z,4.41
2023-01-29T05:02:50.116Z,3.47
2023-01-29T05:05:52.203Z,2.83
2023-01-29T05:08:54.318Z,2.14
2023-01-29T05:11:56.214Z,3.08
2023-01-29T05:14:58.521Z,3.09
2023-01-29T05:18:03.243Z,3.19
2023-01-29T05:21:05.561Z,3.11
2023-01-29T05:24:09.141Z,3.55
2023-01-29T05:27:35.336Z,3.27
2023-01-29T05:30:38.723Z,2.77
2023-01-29T05:33:40.723Z,3.41
2023-01-29T05:36:42.648Z,3.36
2023-01-29T05:39:44.548Z,3.36
2023-01-29T05:42:46.556Z,3.94
2023-01-29T05:45:58.199Z,4.36
2023-01-29T05:49:00.116Z,4.30
2023-01-29T05:52:01.980Z,3.73
2023-01-29T05:55:03.960Z,4.35
2023-01-29T05:58:06.248Z,4.06
2023-01-29T06:01:18.134Z,4.27
2023-01-29T06:04:20.133Z,4.21
2023-01-29T06:07:22.095Z,3.71
2023-01-29T06:10:24.183Z,3.23
2023-01-29T06:13:26.126Z,4.05
2023-01-29T06:16:28.146Z,3.41
2023-01-29T06:19:30.259Z,3.38
2023-01-29T06:22:33.062Z,2.85
2023-01-29T06:25:34.962Z,2.04
2023-01-29T06:28:36.909Z,2.82
2023-01-29T06:31:39.837Z,3.21
2023-01-29T06:34:41.929Z,3.44
2023-01-29T06:37:44.396Z,2.86
2023-01-29T06:40:46.243Z,2.14
2023-01-29T06:43:48.268Z,2.89
2023-01-29T06:46:50.419Z,2.31
2023-01-29T06:49:52.343Z,2.25
2023-01-29T06:52:54.133Z,2.57
2023-01-29T06:55:55.951Z,2.61
2023-01-29T06:58:58.002Z,1.98
2023-01-29T07:01:59.951Z,2.43
2023-01-29T07:05:01.972Z,2.30
2023-01-29T07:08:04.146Z,2.56
2023-01-29T07:11:06.644Z,1.92
2023-01-29T07:14:08.608Z,2.37
2023-01-29T07:17:10.457Z,1.73
2023-01-29T07:20:12.419Z,1.93
2023-01-29T07:23:14.629Z,1.79
2023-01-29T07:26:16.612Z,2.60
2023-01-29T07:29:18.590Z,2.09
2023-01-29T07:32:20.593Z,2.54
2023-01-29T07:35:22.633Z,2.30
2023-01-29T07:38:24.514Z,3.26
2023-01-29T07:41:26.642Z,2.99
2023-01-29T07:44:28.508Z,2.05
2023-01-29T07:47:30.382Z,2.69
2023-01-29T07:50:33.046Z,2.80
2023-01-29T07:53:35.854Z,1.69
2023-01-29T07:56:37.873Z,2.53
2023-01-29T07:59:39.773Z,3.00
2023-01-29T08:02:41.893Z,2.32
2023-01-29T08:05:44.371Z,2.09
2023-01-29T08:08:46.182Z,1.99
2023-01-29T08:11:48.176Z,2.06
2023-01-29T08:14:50.357Z,2.02
2023-01-29T08:17:57.822Z,1.81
2023-01-29T08:21:01.229Z,2.46
2023-01-29T08:24:03.268Z,2.11
2023-01-29T08:27:05.275Z,1.96
2023-01-29T08:30:07.515Z,1.90
2023-01-29T08:33:09.458Z,1.53
2023-01-29T08:36:11.402Z,1.36
2023-01-29T08:39:13.356Z,1.95
2023-01-29T08:42:15.292Z,2.63
2023-01-29T08:45:17.304Z,1.80
2023-01-29T08:48:19.201Z,2.63
2023-01-29T08:51:21.841Z,2.23
2023-01-29T08:54:24.305Z,3.13
2023-01-29T08:57:26.211Z,2.36
2023-01-29T09:00:28.166Z,1.55
2023-01-29T09:03:30.200Z,1.31
2023-01-29T09:06:32.069Z,1.80
2023-01-29T09:09:33.980Z,1.59
2023-01-29T09:12:35.958Z,2.70
2023-01-29T09:15:37.888Z,2.55
2023-01-29T09:18:39.740Z,1.76
2023-01-29T09:21:41.809Z,2.11
2023-01-29T09:24:43.690Z,2.10
2023-01-29T09:27:45.685Z,1.97
2023-01-29T09:30:47.737Z,2.58
2023-01-29T09:33:49.747Z,2.56
2023-01-29T09:36:52.164Z,2.86
2023-01-29T09:39:54.028Z,3.15
2023-01-29T09:42:58.383Z,2.81
2023-01-29T09:46:08.167Z,2.42
2023-01-29T09:49:26.727Z,3.54
2023-01-29T09:52:39.189Z,3.08
2023-01-29T09:55:46.677Z,2.53
2023-01-29T09:58:48.688Z,2.93
2023-01-29T10:01:55.814Z,2.17
2023-01-29T10:05:10.225Z,2.35
2023-01-29T10:08:30.971Z,2.54
2023-01-29T10:11:36.210Z,2.77
2023-01-29T10:14:41.025Z,2.92
2023-01-29T10:17:45.724Z,2.56
2023-01-29T10:20:50.136Z,2.30
2023-01-29T10:23:53.890Z,2.48
2023-01-29T10:26:55.814Z,2.97
2023-01-29T10:29:57.696Z,2.53
2023-01-29T10:33:01.756Z,2.86
2023-01-29T10:36:04.595Z,2.06
2023-01-29T10:39:09.788Z,2.81
2023-01-29T10:42:25.754Z,2.12
2023-01-29T10:45:33.849Z,2.61
2023-01-29T10:48:45.088Z,2.17
2023-01-29T10:52:16.242Z,1.64
2023-01-29T10:55:30.235Z,2.55
2023-01-29T10:58:49.999Z,2.08
2023-01-29T11:01:52.075Z,2.71
2023-01-29T11:04:54.197Z,2.71
2023-01-29T11:08:01.225Z,2.88
2023-01-29T11:11:11.806Z,2.68
2023-01-29T11:14:15.303Z,2.21
2023-01-29T11:17:21.282Z,3.15
2023-01-29T11:20:27.230Z,1.89
2023-01-29T11:23:33.422Z,2.51
2023-01-29T11:26:36.258Z,2.60
2023-01-29T11:29:38.337Z,2.70
2023-01-29T11:32:40.481Z,2.68
2023-01-29T11:35:42.318Z,3.37
2023-01-29T11:38:44.444Z,3.76
2023-01-29T11:41:51.071Z,2.96
2023-01-29T11:44:53.188Z,3.45
2023-01-29T11:47:55.518Z,3.19
2023-01-29T11:50:58.116Z,3.31
2023-01-29T11:54:00.892Z,3.68
2023-01-29T11:57:02.793Z,3.60
2023-01-29T12:00:13.731Z,2.76
2023-01-29T12:03:35.839Z,2.59
2023-01-29T12:06:38.213Z,3.13
2023-01-29T12:09:40.273Z,3.34
2023-01-29T12:12:42.400Z,3.05
2023-01-29T12:15:44.325Z,3.12
2023-01-29T12:18:51.300Z,3.06
2023-01-29T12:21:58.438Z,2.06
2023-01-29T12:25:26.575Z,2.42
2023-01-29T12:28:34.533Z,3.14
2023-01-29T12:31:44.484Z,3.14
2023-01-29T12:34:55.461Z,3.05
2023-01-29T12:38:00.820Z,3.26
2023-01-29T12:41:06.965Z,3.17
2023-01-29T12:44:13.859Z,3.01
2023-01-29T12:47:35.915Z,3.44
2023-01-29T12:50:38.185Z,2.84
2023-01-29T12:54:00.183Z,3.56
2023-01-29T12:57:03.016Z,3.15
2023-01-29T13:00:19.260Z,3.19
2023-01-29T13:03:24.541Z,4.30
2023-01-29T13:06:28.130Z,4.01
2023-01-29T13:09:30.726Z,4.16
2023-01-29T13:12:32.637Z,3.13
2023-01-29T13:15:38.925Z,3.63
2023-01-29T13:18:41.251Z,3.07
2023-01-29T13:21:44.011Z,3.76
2023-01-29T13:24:55.455Z,5.70
2023-01-29T13:28:05.454Z,6.18
2023-01-29T13:31:10.486Z,4.88
2023-01-29T13:34:16.585Z,6.43
2023-01-29T13:37:24.675Z,8.04
2023-01-29T13:40:30.017Z,11.08
2023-01-29T13:43:35.142Z,8.63
2023-01-29T13:46:39.710Z,10.68
2023-01-29T13:49:52.722Z,10.61
2023-01-29T13:52:55.446Z,9.04
2023-01-29T13:56:03.925Z,9.82
2023-01-29T13:59:05.895Z,8.91
2023-01-29T14:02:21.147Z,8.79
2023-01-29T14:05:33.833Z,5.81
2023-01-29T14:08:36.094Z,5.56
2023-01-29T14:11:38.074Z,5.29
2023-01-29T14:14:49.141Z,4.87
2023-01-29T14:18:05.821Z,5.45
2023-01-29T14:21:30.567Z,4.97
2023-01-29T14:24:32.679Z,3.04
2023-01-29T14:27:34.553Z,2.54
2023-01-29T14:30:36.725Z,2.48
2023-01-29T14:33:39.848Z,2.85
2023-01-29T14:36:43.626Z,2.59
2023-01-29T14:39:47.160Z,1.90
2023-01-29T14:43:07.726Z,1.61
2023-01-29T14:46:28.295Z,1.89
2023-01-29T14:49:48.871Z,1.16
2023-01-29T14:52:50.810Z,1.54
2023-01-29T14:56:00.124Z,1.63
2023-01-29T14:59:34.547Z,0.99
2023-01-29T15:02:43.678Z,1.11
2023-01-29T15:05:45.626Z,0.76
2023-01-29T15:08:49.787Z,1.08
2023-01-29T15:12:10.545Z,0.81
2023-01-29T15:15:27.344Z,0.61
2023-01-29T15:18:37.355Z,0.34
2023-01-29T15:21:39.282Z,0.84
2023-01-29T15:24:41.931Z,0.96
2023-01-29T15:27:44.234Z,1.22
2023-01-29T15:30:46.110Z,0.65
2023-01-29T15:33:48.404Z,1.21
2023-01-29T15:36:50.392Z,1.41
2023-01-29T15:39:53.157Z,1.51
2023-01-29T15:42:55.376Z,1.29
2023-01-29T15:45:58.216Z,1.82
2023-01-29T15:49:00.880Z,1.50
2023-01-29T15:52:06.654Z,1.58
2023-01-29T15:55:19.934Z,1.16
2023-01-29T15:58:23.618Z,1.43
2023-01-29T16:01:28.975Z,0.82
2023-01-29T16:04:31.508Z,1.20
2023-01-29T16:07:33.961Z,1.24
2023-01-29T16:10:35.961Z,1.55
2023-01-29T16:13:40.041Z,1.55
2023-01-29T16:16:45.184Z,1.43
2023-01-29T16:19:55.075Z,1.82
2023-01-29T16:22:57.145Z,0.37
2023-01-29T16:26:02.316Z,0.28
2023-01-29T16:29:08.318Z,0.85
2023-01-29T16:32:12.367Z,1.12
2023-01-29T16:35:15.116Z,1.39
2023-01-29T16:38:25.335Z,1.15
2023-01-29T16:41:31.496Z,0.78
2023-01-29T16:44:36.702Z,0.48
2023-01-29T16:47:39.330Z,0.42
2023-01-29T16:50:54.309Z,1.11
2023-01-29T16:54:00.892Z,0.24
2023-01-29T16:57:03.468Z,-0.28
2023-01-29T17:00:07.649Z,-0.33
2023-01-29T17:03:10.368Z,-0.17
2023-01-29T17:06:13.125Z,0.32
2023-01-29T17:09:22.601Z,0.75
2023-01-29T17:12:25.155Z,0.10
2023-01-29T17:15:29.215Z,0.77
2023-01-29T17:18:31.218Z,1.35
2023-01-29T17:21:33.119Z,0.14
2023-01-29T17:24:35.132Z,0.08
2023-01-29T17:27:36.996Z,-0.28
2023-01-29T17:30:39.191Z,-0.05
2023-01-29T17:33:42.032Z,-0.02
2023-01-29T17:36:44.053Z,0.28
2023-01-29T17:39:47.376Z,0.15
2023-01-29T17:42:49.191Z,0.78
2023-01-29T17:45:51.141Z,0.32
2023-01-29T17:48:53.075Z,0.04
2023-01-29T17:51:55.713Z,0.61
2023-01-29T17:54:57.606Z,0.25
2023-01-29T17:57:59.516Z,-0.05
2023-01-29T18:01:01.371Z,0.23
2023-01-29T18:04:03.343Z,0.16
2023-01-29T18:07:05.371Z,-0.12
2023-01-29T18:10:07.778Z,0.02
2023-01-29T18:13:09.709Z,0.25
2023-01-29T18:16:11.659Z,0.30
2023-01-29T18:19:19.138Z,0.25
2023-01-29T18:22:21.277Z,-0.16
2023-01-29T18:25:24.888Z,-0.25
2023-01-29T18:28:27.694Z,-0.32
2023-01-29T18:31:30.151Z,0.21
2023-01-29T18:34:32.135Z,0.38
2023-01-29T18:37:34.043Z,0.02
2023-01-29T18:40:36.047Z,-0.42
2023-01-29T18:43:38.360Z,-0.90
2023-01-29T18:46:40.476Z,-0.77
2023-01-29T18:49:42.483Z,-0.56
2023-01-29T18:52:44.570Z,-0.23
2023-01-29T18:55:54.131Z,-0.74
2023-01-29T18:58:56.163Z,-0.96
2023-01-29T19:01:58.163Z,-0.60
2023-01-29T19:05:00.135Z,-0.72
2023-01-29T19:08:02.131Z,-0.63
2023-01-29T19:11:08.131Z,-0.56
2023-01-29T19:14:10.088Z,-0.55
2023-01-29T19:17:12.048Z,-0.94
2023-01-29T19:20:14.063Z,-1.27
2023-01-29T19:23:15.984Z,-1.28
2023-01-29T19:26:17.952Z,-0.98
2023-01-29T19:29:20.235Z,-1.28
2023-01-29T19:32:22.770Z,-0.30
2023-01-29T19:35:24.802Z,-0.40
2023-01-29T19:38:26.944Z,-1.23
2023-01-29T19:41:28.936Z,0.04
2023-01-29T19:44:30.868Z,0.44
2023-01-29T19:47:33.811Z,-0.69
2023-01-29T19:50:35.846Z,-0.53
2023-01-29T19:53:38.228Z,-0.02
2023-01-29T19:56:40.283Z,0.51
2023-01-29T19:59:45.661Z,-0.11
2023-01-29T20:02:47.952Z,-0.31
2023-01-29T20:05:49.850Z,-0.61
2023-01-29T20:08:51.943Z,-0.61
2023-01-29T20:11:53.790Z,-0.50
2023-01-29T20:14:55.606Z,-0.73
2023-01-29T20:17:58.863Z,-0.47
2023-01-29T20:21:05.302Z,-0.90
2023-01-29T20:24:07.675Z,-0.44
2023-01-29T20:27:10.263Z,-0.36
2023-01-29T20:30:12.351Z,-1.07
2023-01-29T20:33:14.270Z,-0.96
2023-01-29T20:36:16.132Z,-0.64
2023-01-29T20:39:18.231Z,-0.56
2023-01-29T20:42:20.088Z,0.29
2023-01-29T20:45:22.330Z,0.69
2023-01-29T20:48:24.744Z,0.13
2023-01-29T20:51:26.623Z,-0.44
2023-01-29T20:54:30.101Z,-0.76
2023-01-29T20:57:32.229Z,-1.28
2023-01-29T21:00:34.291Z,-1.29
2023-01-29T21:03:36.206Z,-0.65
2023-01-29T21:06:38.127Z,-0.72
2023-01-29T21:09:40.047Z,-0.74
2023-01-29T21:12:42.045Z,-0.52
2023-01-29T21:15:44.567Z,-0.85
2023-01-29T21:18:46.456Z,-0.95
2023-01-29T21:21:48.375Z,-1.00
2023-01-29T21:24:50.371Z,-0.92
2023-01-29T21:27:52.242Z,-1.59
2023-01-29T21:31:02.241Z,-0.85
2023-01-29T21:34:07.128Z,-1.24
2023-01-29T21:37:09.695Z,-0.89
2023-01-29T21:40:11.776Z,-0.71
2023-01-29T21:43:15.424Z,-1.45
2023-01-29T21:46:17.540Z,-1.40
2023-01-29T21:49:19.523Z,-1.37
2023-01-29T21:52:21.785Z,-0.88
2023-01-29T21:55:23.851Z,-0.49
2023-01-29T21:58:25.770Z,-1.17
2023-01-29T22:01:38.198Z,-0.67
2023-01-29T22:04:40.676Z,-1.28
2023-01-29T22:07:42.729Z,-1.60
2023-01-29T22:10:44.781Z,-0.77
2023-01-29T22:13:47.314Z,-0.82
2023-01-29T22:16:49.285Z,-0.57
2023-01-29T22:19:51.359Z,-0.56
2023-01-29T22:22:53.265Z,-0.89
2023-01-29T22:25:55.432Z,-0.87
2023-01-29T22:28:57.303Z,-0.79
2023-01-29T22:31:59.673Z,-0.81
2023-01-29T22:35:01.677Z,-0.78
2023-01-29T22:38:03.845Z,-1.02
2023-01-29T22:41:05.925Z,-0.63
2023-01-29T22:44:08.806Z,-0.40
2023-01-29T22:47:10.756Z,-1.15
2023-01-29T22:50:12.854Z,-0.82
2023-01-29T22:53:14.955Z,-0.68
2023-01-29T22:56:17.412Z,-0.53
2023-01-29T22:59:19.464Z,-0.65
2023-01-29T23:02:21.336Z,-0.79
2023-01-29T23:05:23.199Z,-0.83
2023-01-29T23:08:25.037Z,-0.41
2023-01-29T23:11:27.230Z,-0.24
2023-01-29T23:14:29.044Z,-0.45
2023-01-29T23:17:31.040Z,-0.14
2023-01-29T23:20:32.998Z,-0.30
2023-01-29T23:23:35.431Z,-0.70
2023-01-29T23:26:56.223Z,-0.04
2023-01-29T23:29:58.140Z,0.28
2023-01-29T23:32:59.989Z,-0.61
2023-01-29T23:36:02.093Z,-0.23
2023-01-29T23:39:04.200Z,-0.42
2023-01-29T23:42:06.121Z,-0.84
2023-01-29T23:45:08.286Z,0.08
2023-01-29T23:48:10.241Z,0.25
2023-01-29T23:51:12.270Z,-0.32
2023-01-29T23:54:14.231Z,-0.70
2023-01-29T23:57:16.162Z,-0.17
